Data for 08/18/2013

Time Sea-Level Adjusted Pressure Absolute Pressure Temperature Relative Humidity Dew Point   
(mb) (inHg) (mb) (inHg) (C) (F) (%) (C) (F)
00:05 1019 30.09 848 25.04 19.7 67.4 31 2.3 36.2
00:10 1019 30.09 848 25.04 19.5 67.1 32 2.5 36.5
00:15 1019 30.09 848 25.04 19.4 66.8 32 2.2 36
00:20 1019 30.09 848 25.04 19.4 66.9 31 2.2 35.9
00:25 1019 30.09 849 25.07 19.6 67.2 31 2 35.7
00:30 1019 30.09 849 25.07 19.7 67.4 31 2.4 36.3
00:35 1019 30.09 849 25.07 19.5 67.1 32 2.4 36.3
00:40 1020 30.12 849 25.07 19.1 66.4 32 2.3 36.1
00:45 1020 30.12 849 25.07 19.3 66.8 32 2.4 36.3
00:50 1020 30.12 849 25.07 19.6 67.3 32 2.7 36.9
00:55 1020 30.12 849 25.07 19.5 67 32 2.6 36.8
01:00 1019 30.09 849 25.07 19.3 66.8 34 3.2 37.7
01:05 1020 30.12 849 25.07 19.1 66.5 36 4.1 39.3
01:10 1020 30.12 849 25.07 18.8 65.8 35 3 37.4
01:15 1020 30.12 849 25.07 18.6 65.5 35 3.1 37.6
01:20 1020 30.12 849 25.07 18.7 65.6 35 3 37.4
01:25 1020 30.12 849 25.07 18.7 65.6 36 3.3 37.9
01:30 1020 30.12 849 25.07 18.6 65.5 35 3.1 37.6
01:35 1020 30.12 849 25.07 18.7 65.6 36 3.6 38.4
01:40 1020 30.12 849 25.07 18.5 65.3 36 3.4 38.1
01:45 1020 30.12 849 25.07 18.5 65.3 37 3.5 38.4
01:50 1020 30.12 849 25.07 18.3 64.9 37 3.6 38.5
01:55 1020 30.12 849 25.07 18.1 64.6 38 3.8 38.8
02:00 1020 30.12 849 25.07 18.1 64.5 38 3.6 38.5
02:05 1020 30.12 849 25.07 17.9 64.2 39 3.9 39
02:10 1020 30.12 849 25.07 17.7 63.8 39 3.8 38.8
02:15 1020 30.12 849 25.07 17.8 64.1 40 4.2 39.6
02:20 1020 30.12 849 25.07 17.8 64 40 4 39.2
02:25 1020 30.12 849 25.07 17.7 63.9 41 4.4 39.9
02:30 1020 30.12 849 25.07 17.4 63.3 41 4.2 39.6
02:35 1020 30.12 849 25.07 17.4 63.4 41 4.2 39.6
02:40 1020 30.12 849 25.07 17.6 63.7 40 4.1 39.3
02:45 1020 30.12 849 25.07 17.6 63.6 41 4.4 39.9
02:50 1020 30.12 849 25.07 17.7 63.9 40 3.9 39.1
02:55 1020 30.12 849 25.07 18.3 64.9 38 4 39.3
03:00 1020 30.12 849 25.07 18.5 65.3 38 4.1 39.4
03:05 1020 30.12 849 25.07 18.4 65.1 38 4 39.3
03:10 1020 30.12 849 25.07 18.2 64.8 40 4.4 40
03:15 1020 30.12 849 25.07 18.4 65.1 38 4 39.3
03:20 1020 30.12 850 25.1 18.3 64.9 40 4.5 40.1
03:25 1020 30.12 850 25.1 18 64.3 41 4.6 40.2
03:30 1021 30.15 850 25.1 17.9 64.2 40 4.3 39.8
03:35 1021 30.15 850 25.1 18 64.5 40 4.5 40.1
03:40 1021 30.15 850 25.1 18 64.4 41 4.6 40.3
03:45 1021 30.15 850 25.1 18 64.5 40 4.5 40
03:50 1021 30.15 850 25.1 18 64.4 41 4.7 40.5
03:55 1021 30.15 850 25.1 17.9 64.2 42 4.9 40.7
04:00 1021 30.15 850 25.1 17.8 64 43 5.1 41.2
04:05 1021 30.15 850 25.1 17.6 63.6 43 4.9 40.9
04:10 1021 30.15 850 25.1 17.4 63.3 44 5.2 41.4
04:15 1021 30.15 850 25.1 16.9 62.5 44 4.8 40.7
04:20 1021 30.15 850 25.1 16.7 62 45 4.7 40.5
04:25 1021 30.15 850 25.1 16.6 62 44 4.4 39.9
04:30 1021 30.15 850 25.1 16.7 62.1 44 4.6 40.2
04:35 1021 30.15 850 25.1 16.6 61.9 45 4.9 40.8
04:40 1021 30.15 850 25.1 16.3 61.3 45 4.5 40
04:45 1021 30.15 850 25.1 16.2 61.2 45 4.4 39.9
04:50 1021 30.15 850 25.1 16.3 61.4 45 4.4 39.9
04:55 1021 30.15 850 25.1 16.5 61.7 44 4.5 40
05:00 1021 30.15 850 25.1 16.4 61.5 48 5.5 41.9
05:05 1021 30.15 850 25.1 16 60.8 50 5.7 42.3
05:10 1021 30.15 850 25.1 16.1 60.9 47 4.8 40.6
05:15 1021 30.15 851 25.13 16.5 61.6 44 4.3 39.7
05:20 1021 30.15 851 25.13 16.6 61.8 44 4.5 40.1
05:25 1021 30.15 851 25.13 16.6 61.8 45 4.7 40.5
05:30 1021 30.15 851 25.13 16.2 61.2 46 4.7 40.5
05:35 1021 30.15 851 25.13 16.1 61 46 4.6 40.3
05:40 1022 30.18 851 25.13 16 60.8 46 4.5 40.1
05:45 1022 30.18 851 25.13 16 60.7 47 4.6 40.3
05:50 1022 30.18 851 25.13 15.6 60.1 48 4.6 40.3
05:55 1022 30.18 851 25.13 15.6 60.1 48 4.6 40.3
06:00 1022 30.18 851 25.13 15.7 60.2 47 4.6 40.3
06:05 1022 30.18 851 25.13 15.8 60.4 47 4.5 40.2
06:10 1022 30.18 851 25.13 15.9 60.6 47 4.7 40.4
06:15 1022 30.18 851 25.13 15.9 60.6 47 4.7 40.4
06:20 1022 30.18 851 25.13 15.7 60.3 47 4.5 40
06:25 1022 30.18 851 25.13 15.7 60.3 47 4.6 40.3
06:30 1022 30.18 851 25.13 15.9 60.6 47 4.7 40.4
06:35 1022 30.18 851 25.13 16.1 61 47 4.8 40.6
06:40 1022 30.18 851 25.13 16.4 61.4 46 4.8 40.7
06:45 1022 30.18 851 25.13 16.6 61.9 45 4.7 40.5
06:50 1022 30.18 851 25.13 17 62.5 44 4.7 40.5
06:55 1022 30.18 851 25.13 17.2 63 44 5 41
07:00 1022 30.18 851 25.13 17.5 63.4 43 4.9 40.8
07:05 1022 30.18 851 25.13 17.7 63.8 43 5.2 41.3
07:10 1022 30.18 851 25.13 17.9 64.3 43 5.2 41.4
07:15 1022 30.18 851 25.13 18.1 64.6 43 5.5 42
07:20 1022 30.18 851 25.13 18.1 64.6 43 5.6 42
07:25 1022 30.18 851 25.13 18 64.4 43 5.3 41.5
07:30 1022 30.18 851 25.13 18.2 64.7 43 5.5 41.9
07:35 1022 30.18 851 25.13 18.7 65.7 41 5.4 41.8
07:40 1022 30.18 851 25.13 18.9 66.1 40 5.1 41.1
07:45 1022 30.18 851 25.13 19.2 66.5 40 5.2 41.4
07:50 1022 30.18 851 25.13 19.4 66.8 39 5.2 41.3
07:55 1022 30.18 851 25.13 19.7 67.5 38 5.2 41.3
08:00 1022 30.18 851 25.13 20.1 68.1 38 5.4 41.6
08:05 1022 30.18 851 25.13 20.6 69 37 5.5 41.9
08:10 1022 30.18 851 25.13 20.9 69.7 35 5.2 41.3
08:15 1022 30.18 851 25.13 21.5 70.7 33 4.8 40.6
08:20 1022 30.18 851 25.13 22.2 71.9 33 5.3 41.5
08:25 1022 30.18 851 25.13 23.1 73.5 31 5 41.1
08:30 1022 30.18 851 25.13 23 73.5 30 4.9 40.8
08:35 1022 30.18 851 25.13 23.6 74.5 30 5.1 41.1
08:40 1022 30.18 851 25.13 24.2 75.5 28 4.7 40.4
08:45 1022 30.18 851 25.13 24.8 76.6 27 4.8 40.6
08:50 1022 30.18 851 25.13 24.9 76.7 27 4.9 40.7
08:55 1022 30.18 851 25.13 24.8 76.6 27 4.7 40.4
09:00 1022 30.18 851 25.13 24.8 76.7 28 5.2 41.4
09:05 1022 30.18 851 25.13 24.6 76.3 27 4.7 40.4
09:10 1022 30.18 851 25.13 24.5 76.1 28 5.2 41.4
09:15 1022 30.18 851 25.13 25.2 77.4 26 4.5 40
09:20 1022 30.18 851 25.13 25.9 78.6 25 4.4 40
09:25 1022 30.18 851 25.13 26 78.7 26 5.4 41.7
09:30 1022 30.18 851 25.13 25.1 77.3 27 5.1 41.1
09:35 1022 30.18 851 25.13 25 77.1 28 5.3 41.5
09:40 1022 30.18 851 25.13 25.1 77.2 26 4.4 40
09:45 1022 30.18 851 25.13 25.1 77.2 27 4.8 40.7
09:50 1022 30.18 851 25.13 25.4 77.7 25 4.4 39.9
09:55 1022 30.18 851 25.13 26 78.8 27 5.7 42.3
10:00 1021 30.15 851 25.13 26.6 80 24 4.7 40.5
10:05 1021 30.15 851 25.13 27.3 81.1 23 4.5 40.1
10:10 1021 30.15 851 25.13 27.5 81.4 23 4.6 40.2
10:15 1021 30.15 851 25.13 27.5 81.5 23 4.6 40.3
10:20 1021 30.15 851 25.13 26.8 80.2 24 4.7 40.4
10:25 1021 30.15 851 25.13 27.4 81.4 22 4.3 39.8
10:30 1021 30.15 851 25.13 26.5 79.7 23 4.1 39.3
10:35 1021 30.15 851 25.13 26.9 80.4 23 4.1 39.3
10:40 1021 30.15 851 25.13 27.7 81.9 21 3.5 38.4
10:45 1021 30.15 851 25.13 28.4 83.1 21 4.2 39.6
10:50 1021 30.15 851 25.13 28.7 83.6 21 4.3 39.8
10:55 1021 30.15 851 25.13 28.5 83.3 20 3.7 38.6
11:00 1021 30.15 850 25.1 28.2 82.7 21 4.3 39.8
11:05 1021 30.15 850 25.1 27.5 81.6 22 4.1 39.3
11:10 1021 30.15 850 25.1 28 82.4 22 4.5 40.1
11:15 1021 30.15 850 25.1 27.7 81.9 22 4.2 39.6
11:20 1021 30.15 850 25.1 28 82.4 21 4.1 39.3
11:25 1021 30.15 850 25.1 28.2 82.8 21 4.1 39.4
11:30 1021 30.15 850 25.1 29.1 84.3 20 4.3 39.7
11:35 1021 30.15 850 25.1 28.3 83 22 4.7 40.4
11:40 1021 30.15 850 25.1 28.6 83.4 20 3.7 38.7
11:45 1021 30.15 850 25.1 29.4 84.8 21 5.1 41.3
11:50 1021 30.15 850 25.1 28.9 83.9 21 4.4 39.8
11:55 1021 30.15 850 25.1 29.1 84.4 20 4.4 39.9
12:00 1021 30.15 850 25.1 28.8 83.9 20 4 39.2
12:05 1021 30.15 850 25.1 29.2 84.6 20 4.4 39.9
12:10 1021 30.15 850 25.1 29.3 84.7 20 4 39.2
12:15 1021 30.15 850 25.1 29.3 84.7 19 3.8 38.8
12:20 1021 30.15 850 25.1 29.7 85.5 18 3.2 37.8
12:25 1021 30.15 850 25.1 29.5 85.1 19 3.8 38.9
12:30 1021 30.15 850 25.1 29.3 84.7 19 3.4 38.1
12:35 1021 30.15 850 25.1 29.3 84.7 19 3.3 37.9
12:40 1020 30.12 850 25.1 29.9 85.7 16 1.5 34.7
12:45 1020 30.12 850 25.1 29.6 85.3 16 1.1 33.9
12:50 1020 30.12 850 25.1 29.7 85.4 17 2.3 36.2
12:55 1020 30.12 850 25.1 29.9 85.9 16 1.3 34.4
13:00 1020 30.12 850 25.1 30 86.1 17 2.5 36.6
13:05 1020 30.12 849 25.07 30.1 86.2 18 3.1 37.6
13:10 1020 30.12 849 25.07 30.1 86.3 17 2.7 36.9
13:15 1020 30.12 849 25.07 30.4 86.7 17 2.9 37.3
13:20 1020 30.12 849 25.07 30.7 87.2 16 2 35.6
13:25 1020 30.12 849 25.07 30.6 87.1 15 1.6 34.8
13:30 1020 30.12 849 25.07 30.8 87.4 17 2.9 37.2
13:35 1020 30.12 849 25.07 30.4 86.8 16 2.5 36.4
13:40 1020 30.12 849 25.07 30.5 87 15 1.5 34.7
13:45 1020 30.12 849 25.07 30.4 86.6 15 1.6 34.9
13:50 1020 30.12 849 25.07 29.7 85.4 17 2.5 36.4
13:55 1020 30.12 849 25.07 30 85.9 16 1.6 34.8
14:00 1020 30.12 849 25.07 29.5 85.1 18 2.7 36.8
14:05 1020 30.12 849 25.07 29.2 84.5 17 2.2 35.9
14:10 1020 30.12 849 25.07 30.1 86.2 16 2 35.7
14:15 1020 30.12 849 25.07 30.4 86.7 16 2.3 36.2
14:20 1020 30.12 849 25.07 30.9 87.6 15 1.7 35.1
14:25 1020 30.12 849 25.07 31.1 88.1 15 2.1 35.8
14:30 1020 30.12 849 25.07 30.7 87.2 17 3.3 37.9
14:35 1020 30.12 849 25.07 30.4 86.7 16 2.1 35.7
14:40 1019 30.09 849 25.07 30.4 86.7 16 2.4 36.3
14:45 1019 30.09 849 25.07 30 85.9 16 1.6 34.8
14:50 1019 30.09 849 25.07 29.6 85.2 18 2.7 36.9
14:55 1019 30.09 849 25.07 30 86 16 2.2 35.9
15:00 1019 30.09 848 25.04 30.8 87.4 15 2 35.5
15:05 1019 30.09 848 25.04 31.2 88.1 15 2.2 35.9
15:10 1019 30.09 848 25.04 31 87.7 15 1.5 34.7
15:15 1019 30.09 848 25.04 31.2 88.2 15 1.6 34.9
15:20 1019 30.09 848 25.04 30.5 86.9 15 1.5 34.7
15:25 1019 30.09 848 25.04 30.9 87.7 15 1.3 34.4
15:30 1019 30.09 848 25.04 31.4 88.5 15 1.6 34.9
15:35 1019 30.09 848 25.04 30.9 87.7 15 1.6 34.8
15:40 1019 30.09 848 25.04 31.1 88 15 1.7 35
15:45 1019 30.09 848 25.04 31.2 88.1 15 1.6 34.9
15:50 1019 30.09 848 25.04 30.8 87.4 15 1.6 34.9
15:55 1019 30.09 848 25.04 31.1 87.9 15 1.8 35.2
16:00 1019 30.09 848 25.04 31.6 88.8 14 1.4 34.5
16:05 1019 30.09 848 25.04 31.7 89 15 2.2 36
16:10 1019 30.09 848 25.04 31.6 88.9 14 1.5 34.7
16:15 1019 30.09 848 25.04 31.2 88.2 15 1.4 34.6
16:20 1019 30.09 848 25.04 31.2 88.2 14 1 33.8
16:25 1019 30.09 848 25.04 31.4 88.4 14 1.4 34.5
16:30 1019 30.09 848 25.04 31.2 88.2 15 2.3 36.1
16:35 1019 30.09 848 25.04 31.1 88 14 1.3 34.3
16:40 1019 30.09 848 25.04 30.4 86.7 15 1 33.8
16:45 1019 30.09 848 25.04 30.4 86.6 14 0.5 32.9
16:50 1019 30.09 848 25.04 30.6 87.1 15 1.1 34
16:55 1018 30.06 848 25.04 30.8 87.4 14 1 33.9
17:00 1018 30.06 848 25.04 31.3 88.3 14 1.3 34.3
17:05 1018 30.06 848 25.04 30.7 87.2 15 1.1 34
17:10 1018 30.06 848 25.04 30.5 86.8 15 1.1 34.1
17:15 1018 30.06 848 25.04 30.5 86.8 16 2.1 35.8
17:20 1018 30.06 848 25.04 30.7 87.2 15 1.4 34.5
17:25 1018 30.06 847 25.01 30.7 87.2 15 1.4 34.5
17:30 1018 30.06 847 25.01 30.8 87.5 14 0.9 33.6
17:35 1018 30.06 847 25.01 31 87.7 15 1.2 34.2
17:40 1018 30.06 847 25.01 30.4 86.8 15 1.5 34.7
17:45 1018 30.06 847 25.01 30.4 86.7 15 0.9 33.7
17:50 1018 30.06 847 25.01 30.5 86.8 15 1.5 34.7
17:55 1018 30.06 847 25.01 30.2 86.4 15 1.2 34.2
18:00 1018 30.06 847 25.01 30 86.1 15 1.4 34.4
18:05 1018 30.06 847 25.01 29.8 85.6 16 1.3 34.3
18:10 1018 30.06 847 25.01 29.6 85.3 15 0.8 33.5
18:15 1018 30.06 847 25.01 29.6 85.3 16 1.8 35.2
18:20 1018 30.06 847 25.01 29.6 85.3 18 3.2 37.7
18:25 1018 30.06 847 25.01 29.5 85 16 1.5 34.7
18:30 1018 30.06 847 25.01 29.2 84.6 17 2 35.7
18:35 1018 30.06 847 25.01 29.1 84.3 17 1.8 35.2
18:40 1018 30.06 847 25.01 29 84.2 18 2.2 36
18:45 1018 30.06 847 25.01 28.9 84.1 21 4.4 39.9
18:50 1018 30.06 847 25.01 28.8 83.8 23 5.8 42.5
18:55 1018 30.06 847 25.01 28.6 83.5 20 3.8 38.8
19:00 1018 30.06 847 25.01 28.5 83.3 24 6.1 43
19:05 1018 30.06 847 25.01 28.3 83 21 4 39.3
19:10 1018 30.06 847 25.01 28.2 82.8 20 3.8 38.8
19:15 1018 30.06 847 25.01 27.9 82.3 27 7.3 45.1
19:20 1018 30.06 847 25.01 27.4 81.3 24 5.4 41.8
19:25 1018 30.06 847 25.01 26.9 80.4 26 6.2 43.2
19:30 1018 30.06 848 25.04 26.2 79.2 29 7.1 44.8
19:35 1018 30.06 848 25.04 25.6 78.1 28 6 42.7
19:40 1018 30.06 848 25.04 25 76.9 29 5.7 42.3
19:45 1018 30.06 848 25.04 24.4 75.8 29 5.4 41.7
19:50 1018 30.06 848 25.04 23.9 75.1 29 5.1 41.3
19:55 1019 30.09 848 25.04 23.7 74.7 30 5.4 41.7
20:00 1019 30.09 848 25.04 23.5 74.3 30 5.3 41.6
20:05 1019 30.09 848 25.04 23.3 74 29 4.7 40.5
20:10 1019 30.09 848 25.04 23.2 73.7 29 4.6 40.3
20:15 1019 30.09 848 25.04 23 73.3 29 4.4 40
20:20 1019 30.09 848 25.04 22.6 72.7 32 5.4 41.7
20:25 1019 30.09 848 25.04 22.4 72.3 32 5.1 41.2
20:30 1019 30.09 848 25.04 22.2 71.9 33 5.5 41.9
20:35 1019 30.09 848 25.04 22.1 71.8 30 4.1 39.3
20:40 1019 30.09 848 25.04 22.1 71.8 29 3.6 38.5
20:45 1019 30.09 849 25.07 22.1 71.8 29 3.2 37.8
20:50 1019 30.09 849 25.07 21.9 71.4 29 3.1 37.7
20:55 1019 30.09 849 25.07 21.8 71.3 29 3.2 37.7
21:00 1020 30.12 849 25.07 21.7 71 32 4.5 40.2
21:05 1020 30.12 849 25.07 20.4 68.7 34 4 39.1
21:10 1020 30.12 849 25.07 20.5 69 31 3.1 37.6
21:15 1020 30.12 849 25.07 21.1 70 30 3 37.3
21:20 1020 30.12 849 25.07 21.5 70.8 30 3.5 38.3
21:25 1020 30.12 849 25.07 22.2 71.9 26 2.1 35.7
21:30 1020 30.12 849 25.07 23 73.3 29 4 39.3
21:35 1020 30.12 849 25.07 22.4 72.4 28 3.3 38
21:40 1020 30.12 849 25.07 22.2 71.9 29 3.3 38
21:45 1020 30.12 849 25.07 22.1 71.7 29 3.2 37.8
21:50 1020 30.12 849 25.07 21.7 71 30 3.4 38.1
21:55 1020 30.12 849 25.07 21.7 71.1 30 3.5 38.2
22:00 1020 30.12 849 25.07 21.4 70.4 30 3.3 37.9
22:05 1020 30.12 849 25.07 20.9 69.7 31 3.5 38.3
22:10 1020 30.12 849 25.07 20.4 68.8 32 3.3 38
22:15 1020 30.12 850 25.1 20.1 68.1 33 3.4 38.1
22:20 1020 30.12 850 25.1 19.8 67.7 33 3.4 38.2
22:25 1020 30.12 850 25.1 19.7 67.5 35 3.9 39.1
22:30 1020 30.12 850 25.1 19.6 67.3 36 4.4 39.9
22:35 1020 30.12 850 25.1 19.6 67.3 34 3.4 38.2
22:40 1021 30.15 850 25.1 19.5 67.1 36 4.3 39.7
22:45 1021 30.15 850 25.1 19.5 67.1 36 4.4 39.8
22:50 1021 30.15 850 25.1 19.3 66.8 35 3.5 38.3
22:55 1021 30.15 850 25.1 19.3 66.7 34 3.3 38
23:00 1021 30.15 850 25.1 19 66.1 36 3.5 38.4
23:05 1021 30.15 850 25.1 18.4 65.1 40 4.6 40.3
23:10 1021 30.15 850 25.1 18.1 64.5 38 3.6 38.5
23:15 1021 30.15 850 25.1 18 64.3 39 3.8 38.8
23:20 1021 30.15 850 25.1 17.8 64.1 39 3.9 39
23:25 1021 30.15 850 25.1 17.6 63.7 39 3.8 38.8
23:30 1021 30.15 850 25.1 17.6 63.7 39 3.5 38.3
23:35 1021 30.15 850 25.1 17.7 63.9 39 3.6 38.6
23:40 1021 30.15 850 25.1 17.7 63.8 38 3.3 38
23:45 1021 30.15 850 25.1 18 64.4 38 3.4 38.1
23:50 1021 30.15 850 25.1 18.1 64.7 36 3 37.4
23:55 1021 30.15 850 25.1 18.6 65.4 34 2.7 36.9
24:00 1021 30.15 850 25.1 18.8 65.8 34 2.7 36.9